KBFW

Silver Bay Municipal Airport

Silver Bay, Minnesota, USA
METAR KBFW 180252Z AUTO 00000KT 10SM OVC008 M04/M05 A2988 RMK AO2
Observed Flight Rules
Dec-18 @ 02:52 UTC (20 minutes ago) Instrument Flight Rules
Wind Visibility Clouds
Calm 10 miles
  • Overcast at 800' AGL
Temperatures Readings
Current -4°C / 25°F
Dewpoint -5°C / 23°F
Humidity 93%
Altimeter 29.88" Hg
Pressure 1012 hPa
Elevation 331
METAR KBFW 180252Z AUTO 00000KT 10SM OVC008 M04/M05 A2988 RMK AO2
Observed Flight Rules
Dec-18 @ 02:52 UTC
(20 minutes ago)
IFR
Wind Visibility
Calm 10 miles
Clouds
  • Overcast at 800' AGL
Temperature Dewpoint
-4°C / 25°F -5°C / 23°F
Humidity Altimeter Pressure
93% 29.88" Hg 1012 hPa